sensor_id;sensor_type;location;lat;lon;timestamp;temperature;humidity
38456;DHT22;24237;50.106;20.014;2024-02-23T00:00:01;13.40;1.00
38456;DHT22;24237;50.106;20.014;2024-02-23T00:02:31;13.30;1.00
38456;DHT22;24237;50.106;20.014;2024-02-23T00:04:57;13.40;1.00
38456;DHT22;24237;50.106;20.014;2024-02-23T00:07:22;13.40;1.00
38456;DHT22;24237;50.106;20.014;2024-02-23T00:09:48;13.40;1.00
38456;DHT22;24237;50.106;20.014;2024-02-23T00:12:14;13.30;1.00
38456;DHT22;24237;50.106;20.014;2024-02-23T00:14:39;13.20;1.00
38456;DHT22;24237;50.106;20.014;2024-02-23T00:17:05;13.10;1.00
38456;DHT22;24237;50.106;20.014;2024-02-23T00:19:31;13.10;1.00
38456;DHT22;24237;50.106;20.014;2024-02-23T00:21:57;13.10;1.00
38456;DHT22;24237;50.106;20.014;2024-02-23T00:24:25;13.20;1.00
38456;DHT22;24237;50.106;20.014;2024-02-23T00:26:50;13.30;1.00
38456;DHT22;24237;50.106;20.014;2024-02-23T00:29:17;13.50;1.00
38456;DHT22;24237;50.106;20.014;2024-02-23T00:31:43;13.50;1.00
38456;DHT22;24237;50.106;20.014;2024-02-23T00:34:10;13.40;1.00
38456;DHT22;24237;50.106;20.014;2024-02-23T00:36:39;13.20;1.00
38456;DHT22;24237;50.106;20.014;2024-02-23T00:39:06;13.20;1.00
38456;DHT22;24237;50.106;20.014;2024-02-23T00:41:33;13.10;1.00
38456;DHT22;24237;50.106;20.014;2024-02-23T00:43:58;13.10;1.00
38456;DHT22;24237;50.106;20.014;2024-02-23T00:46:24;13.00;1.00
38456;DHT22;24237;50.106;20.014;2024-02-23T00:48:50;13.10;1.00
38456;DHT22;24237;50.106;20.014;2024-02-23T00:51:18;13.00;1.00
38456;DHT22;24237;50.106;20.014;2024-02-23T00:53:44;13.00;1.00
38456;DHT22;24237;50.106;20.014;2024-02-23T00:56:09;13.10;1.00
38456;DHT22;24237;50.106;20.014;2024-02-23T00:58:35;13.00;1.00
38456;DHT22;24237;50.106;20.014;2024-02-23T01:01:01;13.20;1.00
38456;DHT22;24237;50.106;20.014;2024-02-23T01:03:26;13.10;1.00
38456;DHT22;24237;50.106;20.014;2024-02-23T01:05:52;13.00;1.00
38456;DHT22;24237;50.106;20.014;2024-02-23T01:08:19;12.90;1.00
38456;DHT22;24237;50.106;20.014;2024-02-23T01:10:44;12.90;1.00
38456;DHT22;24237;50.106;20.014;2024-02-23T01:13:10;12.80;1.00
38456;DHT22;24237;50.106;20.014;2024-02-23T01:15:36;12.80;1.00
38456;DHT22;24237;50.106;20.014;2024-02-23T01:18:01;12.80;1.00
38456;DHT22;24237;50.106;20.014;2024-02-23T01:20:27;12.90;1.00
38456;DHT22;24237;50.106;20.014;2024-02-23T01:22:53;13.00;61.60
38456;DHT22;24237;50.106;20.014;2024-02-23T01:25:18;12.80;99.90
38456;DHT22;24237;50.106;20.014;2024-02-23T01:27:44;12.70;99.90
38456;DHT22;24237;50.106;20.014;2024-02-23T01:30:11;12.60;99.90
38456;DHT22;24237;50.106;20.014;2024-02-23T01:32:36;12.60;99.90
38456;DHT22;24237;50.106;20.014;2024-02-23T01:35:05;12.50;99.90
38456;DHT22;24237;50.106;20.014;2024-02-23T01:37:31;12.40;1.00
38456;DHT22;24237;50.106;20.014;2024-02-23T01:39:58;12.60;1.00
38456;DHT22;24237;50.106;20.014;2024-02-23T01:42:24;12.60;44.10
38456;DHT22;24237;50.106;20.014;2024-02-23T01:44:51;12.80;12.50
38456;DHT22;24237;50.106;20.014;2024-02-23T01:47:17;12.80;1.00
38456;DHT22;24237;50.106;20.014;2024-02-23T01:49:45;12.70;13.00
38456;DHT22;24237;50.106;20.014;2024-02-23T01:52:13;12.60;65.60
38456;DHT22;24237;50.106;20.014;2024-02-23T01:54:39;12.80;69.50
38456;DHT22;24237;50.106;20.014;2024-02-23T01:57:06;12.70;94.00
38456;DHT22;24237;50.106;20.014;2024-02-23T01:59:35;12.70;99.90
38456;DHT22;24237;50.106;20.014;2024-02-23T02:02:03;12.70;99.90
38456;DHT22;24237;50.106;20.014;2024-02-23T02:04:29;12.60;99.90
38456;DHT22;24237;50.106;20.014;2024-02-23T02:06:55;12.70;99.90
38456;DHT22;24237;50.106;20.014;2024-02-23T02:09:22;12.70;99.90
38456;DHT22;24237;50.106;20.014;2024-02-23T02:11:48;12.70;99.90
38456;DHT22;24237;50.106;20.014;2024-02-23T02:14:15;12.70;99.90
38456;DHT22;24237;50.106;20.014;2024-02-23T02:16:41;12.70;99.90
38456;DHT22;24237;50.106;20.014;2024-02-23T02:19:07;12.80;99.90
38456;DHT22;24237;50.106;20.014;2024-02-23T02:21:33;13.00;99.90
38456;DHT22;24237;50.106;20.014;2024-02-23T02:23:59;12.70;99.90
38456;DHT22;24237;50.106;20.014;2024-02-23T02:26:25;12.80;99.90
38456;DHT22;24237;50.106;20.014;2024-02-23T02:28:51;12.80;99.90
38456;DHT22;24237;50.106;20.014;2024-02-23T02:31:18;12.70;99.90
38456;DHT22;24237;50.106;20.014;2024-02-23T02:33:43;12.70;99.90
38456;DHT22;24237;50.106;20.014;2024-02-23T02:36:11;13.00;99.90
38456;DHT22;24237;50.106;20.014;2024-02-23T02:38:37;12.90;99.90
38456;DHT22;24237;50.106;20.014;2024-02-23T02:41:03;12.90;99.90
38456;DHT22;24237;50.106;20.014;2024-02-23T02:44:15;12.70;99.90
38456;DHT22;24237;50.106;20.014;2024-02-23T02:46:42;12.80;99.90
38456;DHT22;24237;50.106;20.014;2024-02-23T02:49:07;12.70;99.90
38456;DHT22;24237;50.106;20.014;2024-02-23T02:51:33;12.70;99.90
38456;DHT22;24237;50.106;20.014;2024-02-23T02:54:01;12.70;99.90
38456;DHT22;24237;50.106;20.014;2024-02-23T02:56:27;12.80;99.90
38456;DHT22;24237;50.106;20.014;2024-02-23T02:58:52;12.70;99.90
38456;DHT22;24237;50.106;20.014;2024-02-23T03:01:18;12.70;99.90
38456;DHT22;24237;50.106;20.014;2024-02-23T03:03:44;12.60;99.90
38456;DHT22;24237;50.106;20.014;2024-02-23T03:06:09;12.60;99.90
38456;DHT22;24237;50.106;20.014;2024-02-23T03:08:35;12.60;99.90
38456;DHT22;24237;50.106;20.014;2024-02-23T03:11:00;12.60;99.90
38456;DHT22;24237;50.106;20.014;2024-02-23T03:13:26;12.50;99.90
38456;DHT22;24237;50.106;20.014;2024-02-23T03:15:52;12.50;99.90
38456;DHT22;24237;50.106;20.014;2024-02-23T03:18:17;12.70;99.90
38456;DHT22;24237;50.106;20.014;2024-02-23T03:20:43;12.70;99.90
38456;DHT22;24237;50.106;20.014;2024-02-23T03:23:10;12.80;99.90
38456;DHT22;24237;50.106;20.014;2024-02-23T03:25:36;12.80;99.90
38456;DHT22;24237;50.106;20.014;2024-02-23T03:28:01;12.90;98.60
38456;DHT22;24237;50.106;20.014;2024-02-23T03:30:27;12.80;89.00
38456;DHT22;24237;50.106;20.014;2024-02-23T03:32:53;12.80;96.40
38456;DHT22;24237;50.106;20.014;2024-02-23T03:35:18;12.90;88.30
38456;DHT22;24237;50.106;20.014;2024-02-23T03:37:44;13.00;63.10
38456;DHT22;24237;50.106;20.014;2024-02-23T03:40:10;12.90;30.40
38456;DHT22;24237;50.106;20.014;2024-02-23T03:42:36;12.70;31.90
38456;DHT22;24237;50.106;20.014;2024-02-23T03:45:02;12.80;38.70
38456;DHT22;24237;50.106;20.014;2024-02-23T03:47:28;12.70;24.60
38456;DHT22;24237;50.106;20.014;2024-02-23T03:49:54;12.70;36.60
38456;DHT22;24237;50.106;20.014;2024-02-23T03:52:19;13.10;1.00
38456;DHT22;24237;50.106;20.014;2024-02-23T03:54:45;12.90;1.00
38456;DHT22;24237;50.106;20.014;2024-02-23T03:57:11;13.00;1.00
38456;DHT22;24237;50.106;20.014;2024-02-23T03:59:36;12.90;1.00
38456;DHT22;24237;50.106;20.014;2024-02-23T04:02:03;13.20;1.00
38456;DHT22;24237;50.106;20.014;2024-02-23T04:04:29;13.00;1.00
38456;DHT22;24237;50.106;20.014;2024-02-23T04:06:55;13.00;1.00
38456;DHT22;24237;50.106;20.014;2024-02-23T04:09:20;13.20;1.00
38456;DHT22;24237;50.106;20.014;2024-02-23T04:11:47;13.10;1.00
38456;DHT22;24237;50.106;20.014;2024-02-23T04:14:13;13.00;1.00
38456;DHT22;24237;50.106;20.014;2024-02-23T04:16:39;13.20;1.00
38456;DHT22;24237;50.106;20.014;2024-02-23T04:19:05;13.00;1.00
38456;DHT22;24237;50.106;20.014;2024-02-23T04:21:30;13.00;1.00
38456;DHT22;24237;50.106;20.014;2024-02-23T04:23:56;13.10;1.00
38456;DHT22;24237;50.106;20.014;2024-02-23T04:26:21;13.10;1.00
38456;DHT22;24237;50.106;20.014;2024-02-23T04:28:47;13.00;1.00
38456;DHT22;24237;50.106;20.014;2024-02-23T04:31:13;12.80;45.80
38456;DHT22;24237;50.106;20.014;2024-02-23T04:33:38;12.80;72.30
38456;DHT22;24237;50.106;20.014;2024-02-23T04:36:05;12.80;90.10
38456;DHT22;24237;50.106;20.014;2024-02-23T04:38:31;12.80;96.60
38456;DHT22;24237;50.106;20.014;2024-02-23T04:40:58;12.90;99.90
38456;DHT22;24237;50.106;20.014;2024-02-23T04:43:24;12.70;99.90
38456;DHT22;24237;50.106;20.014;2024-02-23T04:45:50;12.70;99.90
38456;DHT22;24237;50.106;20.014;2024-02-23T04:48:16;12.70;99.90
38456;DHT22;24237;50.106;20.014;2024-02-23T04:50:42;12.70;99.90
38456;DHT22;24237;50.106;20.014;2024-02-23T04:53:07;12.60;99.90
38456;DHT22;24237;50.106;20.014;2024-02-23T04:55:33;12.60;99.90
38456;DHT22;24237;50.106;20.014;2024-02-23T04:57:59;12.60;99.90
38456;DHT22;24237;50.106;20.014;2024-02-23T05:00:24;12.50;99.90
38456;DHT22;24237;50.106;20.014;2024-02-23T05:02:54;12.40;1.00
38456;DHT22;24237;50.106;20.014;2024-02-23T05:05:19;12.50;1.00
38456;DHT22;24237;50.106;20.014;2024-02-23T05:07:47;12.50;1.00
38456;DHT22;24237;50.106;20.014;2024-02-23T05:10:13;12.50;1.00
38456;DHT22;24237;50.106;20.014;2024-02-23T05:12:38;12.40;1.00
38456;DHT22;24237;50.106;20.014;2024-02-23T05:15:04;12.40;1.00
38456;DHT22;24237;50.106;20.014;2024-02-23T05:17:30;12.40;1.00
38456;DHT22;24237;50.106;20.014;2024-02-23T05:19:55;12.40;1.00
38456;DHT22;24237;50.106;20.014;2024-02-23T05:22:21;12.40;36.90
38456;DHT22;24237;50.106;20.014;2024-02-23T05:24:47;12.40;49.80
38456;DHT22;24237;50.106;20.014;2024-02-23T05:27:12;12.40;68.70
38456;DHT22;24237;50.106;20.014;2024-02-23T05:29:38;12.40;99.90
38456;DHT22;24237;50.106;20.014;2024-02-23T05:32:04;12.40;83.50
38456;DHT22;24237;50.106;20.014;2024-02-23T05:34:29;12.40;99.90
38456;DHT22;24237;50.106;20.014;2024-02-23T05:36:55;12.40;99.90
38456;DHT22;24237;50.106;20.014;2024-02-23T05:39:21;12.40;99.90
38456;DHT22;24237;50.106;20.014;2024-02-23T05:41:47;12.40;1.00
38456;DHT22;24237;50.106;20.014;2024-02-23T05:44:12;12.40;99.90
38456;DHT22;24237;50.106;20.014;2024-02-23T05:46:38;12.30;99.90
38456;DHT22;24237;50.106;20.014;2024-02-23T05:49:04;12.20;1.00
38456;DHT22;24237;50.106;20.014;2024-02-23T05:51:30;12.20;99.90
38456;DHT22;24237;50.106;20.014;2024-02-23T05:53:57;12.10;1.00
38456;DHT22;24237;50.106;20.014;2024-02-23T05:56:23;12.00;22.90
38456;DHT22;24237;50.106;20.014;2024-02-23T05:58:51;11.90;99.90
38456;DHT22;24237;50.106;20.014;2024-02-23T06:01:18;11.90;99.90
38456;DHT22;24237;50.106;20.014;2024-02-23T06:03:44;11.90;99.90
38456;DHT22;24237;50.106;20.014;2024-02-23T06:06:10;11.80;99.90
38456;DHT22;24237;50.106;20.014;2024-02-23T06:08:36;11.90;99.90
38456;DHT22;24237;50.106;20.014;2024-02-23T06:11:03;11.90;99.90
38456;DHT22;24237;50.106;20.014;2024-02-23T06:13:32;11.90;1.00
38456;DHT22;24237;50.106;20.014;2024-02-23T06:15:59;11.90;1.00
38456;DHT22;24237;50.106;20.014;2024-02-23T06:18:24;11.90;93.90
38456;DHT22;24237;50.106;20.014;2024-02-23T06:20:50;11.90;99.90
38456;DHT22;24237;50.106;20.014;2024-02-23T06:23:16;11.90;99.90
38456;DHT22;24237;50.106;20.014;2024-02-23T06:25:43;11.90;99.90
38456;DHT22;24237;50.106;20.014;2024-02-23T06:28:09;11.90;99.90
38456;DHT22;24237;50.106;20.014;2024-02-23T06:30:36;11.80;99.90
38456;DHT22;24237;50.106;20.014;2024-02-23T06:33:01;11.90;99.90
38456;DHT22;24237;50.106;20.014;2024-02-23T06:35:27;11.90;99.90
38456;DHT22;24237;50.106;20.014;2024-02-23T06:37:53;11.90;1.00
38456;DHT22;24237;50.106;20.014;2024-02-23T06:40:18;11.90;30.20
38456;DHT22;24237;50.106;20.014;2024-02-23T06:42:44;11.90;45.40
38456;DHT22;24237;50.106;20.014;2024-02-23T06:45:10;12.00;1.00
38456;DHT22;24237;50.106;20.014;2024-02-23T06:47:36;12.00;99.90
38456;DHT22;24237;50.106;20.014;2024-02-23T06:50:01;12.10;99.90
38456;DHT22;24237;50.106;20.014;2024-02-23T06:52:29;12.20;1.00
38456;DHT22;24237;50.106;20.014;2024-02-23T06:54:54;12.20;99.90
38456;DHT22;24237;50.106;20.014;2024-02-23T06:57:20;12.20;99.90
38456;DHT22;24237;50.106;20.014;2024-02-23T06:59:46;12.30;99.90
38456;DHT22;24237;50.106;20.014;2024-02-23T07:02:11;12.40;99.90
38456;DHT22;24237;50.106;20.014;2024-02-23T07:04:37;12.50;99.90
38456;DHT22;24237;50.106;20.014;2024-02-23T07:07:03;12.50;97.70
38456;DHT22;24237;50.106;20.014;2024-02-23T07:09:33;12.60;1.00
38456;DHT22;24237;50.106;20.014;2024-02-23T07:11:58;12.60;1.00
38456;DHT22;24237;50.106;20.014;2024-02-23T07:14:24;12.70;99.90
38456;DHT22;24237;50.106;20.014;2024-02-23T07:16:50;12.60;1.00
38456;DHT22;24237;50.106;20.014;2024-02-23T07:19:16;12.70;99.90
38456;DHT22;24237;50.106;20.014;2024-02-23T07:21:42;12.90;99.90
38456;DHT22;24237;50.106;20.014;2024-02-23T07:24:08;12.90;99.90
38456;DHT22;24237;50.106;20.014;2024-02-23T07:26:33;13.00;99.90
38456;DHT22;24237;50.106;20.014;2024-02-23T07:28:59;13.10;99.90
38456;DHT22;24237;50.106;20.014;2024-02-23T07:31:25;13.00;99.90
38456;DHT22;24237;50.106;20.014;2024-02-23T07:33:50;13.00;1.00
38456;DHT22;24237;50.106;20.014;2024-02-23T07:36:17;12.90;99.90
38456;DHT22;24237;50.106;20.014;2024-02-23T07:38:42;12.90;99.90
38456;DHT22;24237;50.106;20.014;2024-02-23T07:41:11;12.80;1.00
38456;DHT22;24237;50.106;20.014;2024-02-23T07:43:38;12.70;93.80
38456;DHT22;24237;50.106;20.014;2024-02-23T07:46:04;12.80;1.00
38456;DHT22;24237;50.106;20.014;2024-02-23T07:48:34;12.70;99.90
38456;DHT22;24237;50.106;20.014;2024-02-23T07:50:59;12.70;99.90
38456;DHT22;24237;50.106;20.014;2024-02-23T07:53:25;12.60;99.90
38456;DHT22;24237;50.106;20.014;2024-02-23T07:55:51;12.50;1.00
38456;DHT22;24237;50.106;20.014;2024-02-23T07:58:16;12.60;1.00
38456;DHT22;24237;50.106;20.014;2024-02-23T08:00:42;12.60;1.00
38456;DHT22;24237;50.106;20.014;2024-02-23T08:03:07;12.60;1.00
38456;DHT22;24237;50.106;20.014;2024-02-23T08:05:33;12.50;62.60
38456;DHT22;24237;50.106;20.014;2024-02-23T08:07:59;12.40;45.10
38456;DHT22;24237;50.106;20.014;2024-02-23T08:10:24;12.50;99.90
38456;DHT22;24237;50.106;20.014;2024-02-23T08:12:51;12.60;99.90
38456;DHT22;24237;50.106;20.014;2024-02-23T08:15:16;12.60;1.00
38456;DHT22;24237;50.106;20.014;2024-02-23T08:17:42;12.60;80.70
38456;DHT22;24237;50.106;20.014;2024-02-23T08:20:08;12.40;99.90
38456;DHT22;24237;50.106;20.014;2024-02-23T08:22:34;12.30;1.00
38456;DHT22;24237;50.106;20.014;2024-02-23T08:25:00;12.20;99.90
38456;DHT22;24237;50.106;20.014;2024-02-23T08:27:25;12.30;1.00
38456;DHT22;24237;50.106;20.014;2024-02-23T08:29:51;12.40;99.90
38456;DHT22;24237;50.106;20.014;2024-02-23T08:32:16;12.20;1.00
38456;DHT22;24237;50.106;20.014;2024-02-23T08:34:43;12.30;99.90
38456;DHT22;24237;50.106;20.014;2024-02-23T08:37:09;12.20;99.90
38456;DHT22;24237;50.106;20.014;2024-02-23T08:39:34;12.20;99.90
38456;DHT22;24237;50.106;20.014;2024-02-23T08:42:02;12.00;1.00
38456;DHT22;24237;50.106;20.014;2024-02-23T08:44:28;11.90;99.90
38456;DHT22;24237;50.106;20.014;2024-02-23T08:46:54;12.00;1.00
38456;DHT22;24237;50.106;20.014;2024-02-23T08:49:20;12.10;1.00
38456;DHT22;24237;50.106;20.014;2024-02-23T08:51:45;12.20;1.00
38456;DHT22;24237;50.106;20.014;2024-02-23T08:54:13;12.20;99.90
38456;DHT22;24237;50.106;20.014;2024-02-23T08:56:39;12.10;99.90
38456;DHT22;24237;50.106;20.014;2024-02-23T08:59:07;12.00;1.00
38456;DHT22;24237;50.106;20.014;2024-02-23T09:01:34;11.90;99.90
38456;DHT22;24237;50.106;20.014;2024-02-23T09:04:00;12.00;99.90
38456;DHT22;24237;50.106;20.014;2024-02-23T09:06:26;12.10;29.60
38456;DHT22;24237;50.106;20.014;2024-02-23T09:08:51;12.10;1.00
38456;DHT22;24237;50.106;20.014;2024-02-23T09:11:17;12.10;1.00
38456;DHT22;24237;50.106;20.014;2024-02-23T09:13:42;12.00;91.60
38456;DHT22;24237;50.106;20.014;2024-02-23T09:16:08;12.00;1.00
38456;DHT22;24237;50.106;20.014;2024-02-23T09:18:35;12.20;1.00
38456;DHT22;24237;50.106;20.014;2024-02-23T09:21:00;12.00;1.00
38456;DHT22;24237;50.106;20.014;2024-02-23T09:23:26;12.10;99.90
38456;DHT22;24237;50.106;20.014;2024-02-23T09:25:52;12.10;99.90
38456;DHT22;24237;50.106;20.014;2024-02-23T09:28:18;12.00;99.90
38456;DHT22;24237;50.106;20.014;2024-02-23T09:30:43;11.80;1.00
38456;DHT22;24237;50.106;20.014;2024-02-23T09:33:09;11.80;1.00
38456;DHT22;24237;50.106;20.014;2024-02-23T09:35:35;11.90;1.00
38456;DHT22;24237;50.106;20.014;2024-02-23T09:38:00;11.90;1.00
38456;DHT22;24237;50.106;20.014;2024-02-23T09:40:26;12.00;1.00
38456;DHT22;24237;50.106;20.014;2024-02-23T09:42:56;12.30;1.00
38456;DHT22;24237;50.106;20.014;2024-02-23T09:45:24;12.40;99.90
38456;DHT22;24237;50.106;20.014;2024-02-23T09:47:50;12.40;97.70
38456;DHT22;24237;50.106;20.014;2024-02-23T09:50:17;12.40;96.00
38456;DHT22;24237;50.106;20.014;2024-02-23T09:52:45;12.40;99.90
38456;DHT22;24237;50.106;20.014;2024-02-23T09:55:12;12.30;99.90
38456;DHT22;24237;50.106;20.014;2024-02-23T09:57:38;12.20;92.00
38456;DHT22;24237;50.106;20.014;2024-02-23T10:00:04;12.20;99.90
38456;DHT22;24237;50.106;20.014;2024-02-23T10:02:31;12.20;99.90
38456;DHT22;24237;50.106;20.014;2024-02-23T10:05:00;12.20;83.10
38456;DHT22;24237;50.106;20.014;2024-02-23T10:07:26;12.20;99.50
38456;DHT22;24237;50.106;20.014;2024-02-23T10:09:53;12.00;99.90
38456;DHT22;24237;50.106;20.014;2024-02-23T10:12:18;12.10;90.10
38456;DHT22;24237;50.106;20.014;2024-02-23T10:14:44;12.10;83.30
38456;DHT22;24237;50.106;20.014;2024-02-23T10:17:10;11.90;99.90
38456;DHT22;24237;50.106;20.014;2024-02-23T10:19:35;11.80;1.00
38456;DHT22;24237;50.106;20.014;2024-02-23T10:22:01;11.90;1.00
38456;DHT22;24237;50.106;20.014;2024-02-23T10:24:27;11.90;1.00
38456;DHT22;24237;50.106;20.014;2024-02-23T10:26:53;12.20;99.90
38456;DHT22;24237;50.106;20.014;2024-02-23T10:29:19;12.20;70.30
38456;DHT22;24237;50.106;20.014;2024-02-23T10:31:46;12.10;99.90
38456;DHT22;24237;50.106;20.014;2024-02-23T10:34:18;12.10;12.30
38456;DHT22;24237;50.106;20.014;2024-02-23T10:36:45;12.40;1.00
38456;DHT22;24237;50.106;20.014;2024-02-23T10:39:16;12.40;1.00
38456;DHT22;24237;50.106;20.014;2024-02-23T10:41:57;12.40;34.30
38456;DHT22;24237;50.106;20.014;2024-02-23T10:44:28;12.40;1.00
38456;DHT22;24237;50.106;20.014;2024-02-23T10:46:55;12.50;1.00
38456;DHT22;24237;50.106;20.014;2024-02-23T10:49:23;12.50;99.90
38456;DHT22;24237;50.106;20.014;2024-02-23T10:51:52;12.60;1.00
38456;DHT22;24237;50.106;20.014;2024-02-23T10:54:19;12.60;1.00
38456;DHT22;24237;50.106;20.014;2024-02-23T10:56:52;12.80;99.90
38456;DHT22;24237;50.106;20.014;2024-02-23T10:59:19;12.80;99.90
38456;DHT22;24237;50.106;20.014;2024-02-23T11:01:54;12.90;99.90
38456;DHT22;24237;50.106;20.014;2024-02-23T11:04:23;12.90;1.00
38456;DHT22;24237;50.106;20.014;2024-02-23T11:06:56;13.00;1.00
38456;DHT22;24237;50.106;20.014;2024-02-23T11:09:24;12.80;1.00
38456;DHT22;24237;50.106;20.014;2024-02-23T11:11:55;12.80;1.00
38456;DHT22;24237;50.106;20.014;2024-02-23T11:14:35;12.80;1.00
38456;DHT22;24237;50.106;20.014;2024-02-23T11:17:01;12.90;99.90
38456;DHT22;24237;50.106;20.014;2024-02-23T11:19:34;13.00;1.00
38456;DHT22;24237;50.106;20.014;2024-02-23T11:22:00;13.10;1.00
38456;DHT22;24237;50.106;20.014;2024-02-23T11:24:29;13.20;99.90
38456;DHT22;24237;50.106;20.014;2024-02-23T11:26:59;13.30;1.00
38456;DHT22;24237;50.106;20.014;2024-02-23T11:29:29;13.40;99.90
38456;DHT22;24237;50.106;20.014;2024-02-23T11:31:55;13.40;99.90
38456;DHT22;24237;50.106;20.014;2024-02-23T11:34:26;13.10;99.90
38456;DHT22;24237;50.106;20.014;2024-02-23T11:36:52;13.00;99.90
38456;DHT22;24237;50.106;20.014;2024-02-23T11:39:19;13.20;92.00
38456;DHT22;24237;50.106;20.014;2024-02-23T11:41:48;13.40;51.30
38456;DHT22;24237;50.106;20.014;2024-02-23T11:44:14;13.20;3.70
38456;DHT22;24237;50.106;20.014;2024-02-23T11:46:48;13.20;99.90
38456;DHT22;24237;50.106;20.014;2024-02-23T11:49:14;13.40;1.00
38456;DHT22;24237;50.106;20.014;2024-02-23T11:51:43;13.40;1.00
38456;DHT22;24237;50.106;20.014;2024-02-23T11:54:10;13.50;1.00
38456;DHT22;24237;50.106;20.014;2024-02-23T11:56:35;13.40;1.00
38456;DHT22;24237;50.106;20.014;2024-02-23T11:59:01;13.50;1.00
38456;DHT22;24237;50.106;20.014;2024-02-23T12:01:29;13.60;1.00
38456;DHT22;24237;50.106;20.014;2024-02-23T12:03:55;13.70;99.90
38456;DHT22;24237;50.106;20.014;2024-02-23T12:06:21;13.70;99.90
38456;DHT22;24237;50.106;20.014;2024-02-23T12:08:47;13.80;99.90
38456;DHT22;24237;50.106;20.014;2024-02-23T12:11:15;13.40;99.90
38456;DHT22;24237;50.106;20.014;2024-02-23T12:13:41;13.40;1.00
38456;DHT22;24237;50.106;20.014;2024-02-23T12:16:09;13.30;1.00
38456;DHT22;24237;50.106;20.014;2024-02-23T12:18:35;13.40;1.00
38456;DHT22;24237;50.106;20.014;2024-02-23T12:21:02;13.70;99.90
38456;DHT22;24237;50.106;20.014;2024-02-23T12:23:43;13.70;99.90
38456;DHT22;24237;50.106;20.014;2024-02-23T12:26:14;13.70;99.90
38456;DHT22;24237;50.106;20.014;2024-02-23T12:28:40;13.70;99.90
38456;DHT22;24237;50.106;20.014;2024-02-23T12:31:06;13.80;99.90
38456;DHT22;24237;50.106;20.014;2024-02-23T12:33:33;13.70;99.90
38456;DHT22;24237;50.106;20.014;2024-02-23T12:36:06;13.70;99.90
38456;DHT22;24237;50.106;20.014;2024-02-23T12:38:32;13.90;99.90
38456;DHT22;24237;50.106;20.014;2024-02-23T12:40:59;13.80;99.90
38456;DHT22;24237;50.106;20.014;2024-02-23T12:43:25;13.80;99.90
38456;DHT22;24237;50.106;20.014;2024-02-23T12:45:53;13.70;99.90
38456;DHT22;24237;50.106;20.014;2024-02-23T12:48:19;13.70;1.00
38456;DHT22;24237;50.106;20.014;2024-02-23T12:50:46;13.70;99.90
38456;DHT22;24237;50.106;20.014;2024-02-23T12:53:34;13.80;99.90
38456;DHT22;24237;50.106;20.014;2024-02-23T12:56:12;13.80;1.00
38456;DHT22;24237;50.106;20.014;2024-02-23T12:58:43;13.80;99.90
38456;DHT22;24237;50.106;20.014;2024-02-23T13:01:09;13.80;99.90
38456;DHT22;24237;50.106;20.014;2024-02-23T13:03:37;13.60;99.90
38456;DHT22;24237;50.106;20.014;2024-02-23T13:06:04;13.40;3.70
38456;DHT22;24237;50.106;20.014;2024-02-23T13:08:30;13.50;71.10
38456;DHT22;24237;50.106;20.014;2024-02-23T13:10:56;13.60;1.00
38456;DHT22;24237;50.106;20.014;2024-02-23T13:13:23;13.50;1.00
38456;DHT22;24237;50.106;20.014;2024-02-23T13:15:51;13.50;1.00
38456;DHT22;24237;50.106;20.014;2024-02-23T13:18:17;13.40;1.00
38456;DHT22;24237;50.106;20.014;2024-02-23T13:20:43;13.20;99.90
38456;DHT22;24237;50.106;20.014;2024-02-23T13:23:09;13.20;99.90
38456;DHT22;24237;50.106;20.014;2024-02-23T13:25:36;13.40;99.90
38456;DHT22;24237;50.106;20.014;2024-02-23T13:28:02;13.40;99.90
38456;DHT22;24237;50.106;20.014;2024-02-23T13:30:28;13.50;99.90
38456;DHT22;24237;50.106;20.014;2024-02-23T13:32:54;13.70;99.90
38456;DHT22;24237;50.106;20.014;2024-02-23T13:35:20;13.50;99.90
38456;DHT22;24237;50.106;20.014;2024-02-23T13:37:46;13.50;99.90
38456;DHT22;24237;50.106;20.014;2024-02-23T13:40:11;13.40;1.00
38456;DHT22;24237;50.106;20.014;2024-02-23T13:42:37;13.50;1.00
38456;DHT22;24237;50.106;20.014;2024-02-23T13:45:07;13.50;1.00
38456;DHT22;24237;50.106;20.014;2024-02-23T13:47:35;13.40;1.00
38456;DHT22;24237;50.106;20.014;2024-02-23T13:50:01;13.20;99.90
38456;DHT22;24237;50.106;20.014;2024-02-23T13:52:27;13.50;1.00
38456;DHT22;24237;50.106;20.014;2024-02-23T13:54:53;13.50;79.70
38456;DHT22;24237;50.106;20.014;2024-02-23T13:57:19;13.50;1.00
38456;DHT22;24237;50.106;20.014;2024-02-23T13:59:45;13.40;1.00
38456;DHT22;24237;50.106;20.014;2024-02-23T14:02:11;13.20;63.00
38456;DHT22;24237;50.106;20.014;2024-02-23T14:04:37;13.30;43.60
38456;DHT22;24237;50.106;20.014;2024-02-23T14:07:03;13.50;99.90
38456;DHT22;24237;50.106;20.014;2024-02-23T14:09:30;13.50;1.00
38456;DHT22;24237;50.106;20.014;2024-02-23T14:11:56;13.40;1.00
38456;DHT22;24237;50.106;20.014;2024-02-23T14:21:06;13.70;99.90
38456;DHT22;24237;50.106;20.014;2024-02-23T14:23:31;13.50;1.00
38456;DHT22;24237;50.106;20.014;2024-02-23T14:25:57;13.20;99.90
38456;DHT22;24237;50.106;20.014;2024-02-23T14:28:23;13.20;1.00
38456;DHT22;24237;50.106;20.014;2024-02-23T14:30:48;13.20;99.90
38456;DHT22;24237;50.106;20.014;2024-02-23T14:33:14;13.20;1.00
38456;DHT22;24237;50.106;20.014;2024-02-23T14:35:39;13.00;1.00
38456;DHT22;24237;50.106;20.014;2024-02-23T14:38:05;13.00;90.70
38456;DHT22;24237;50.106;20.014;2024-02-23T14:40:31;13.10;55.90
38456;DHT22;24237;50.106;20.014;2024-02-23T14:52:16;13.20;1.00
38456;DHT22;24237;50.106;20.014;2024-02-23T14:54:41;13.30;1.00
38456;DHT22;24237;50.106;20.014;2024-02-23T14:57:07;13.10;99.90
38456;DHT22;24237;50.106;20.014;2024-02-23T14:59:33;13.00;99.90
38456;DHT22;24237;50.106;20.014;2024-02-23T15:02:05;12.90;91.10
38456;DHT22;24237;50.106;20.014;2024-02-23T15:04:32;13.00;99.90
38456;DHT22;24237;50.106;20.014;2024-02-23T15:07:00;13.10;99.90
38456;DHT22;24237;50.106;20.014;2024-02-23T15:09:26;13.20;99.90
38456;DHT22;24237;50.106;20.014;2024-02-23T15:11:52;13.20;99.90
38456;DHT22;24237;50.106;20.014;2024-02-23T15:14:18;13.40;99.90
38456;DHT22;24237;50.106;20.014;2024-02-23T15:16:44;13.30;99.90
38456;DHT22;24237;50.106;20.014;2024-02-23T15:19:09;13.20;99.90
38456;DHT22;24237;50.106;20.014;2024-02-23T15:21:36;13.20;99.90
38456;DHT22;24237;50.106;20.014;2024-02-23T15:24:05;13.10;99.90
38456;DHT22;24237;50.106;20.014;2024-02-23T15:26:31;13.30;53.60
38456;DHT22;24237;50.106;20.014;2024-02-23T15:28:57;13.20;94.80
38456;DHT22;24237;50.106;20.014;2024-02-23T15:31:23;13.20;99.90
38456;DHT22;24237;50.106;20.014;2024-02-23T15:33:49;13.30;99.90